createdAt,value
2022-09-07T00:01:51.961Z,3.08
2022-09-07T00:04:18.569Z,3.33
2022-09-07T00:06:45.169Z,3.58
2022-09-07T00:09:11.727Z,3.60
2022-09-07T00:11:38.367Z,3.45
2022-09-07T00:14:05.912Z,3.55
2022-09-07T00:16:32.522Z,3.30
2022-09-07T00:19:01.983Z,3.72
2022-09-07T00:21:28.633Z,3.30
2022-09-07T00:23:55.743Z,3.08
2022-09-07T00:26:25.424Z,3.58
2022-09-07T00:28:52.779Z,3.95
2022-09-07T00:31:22.252Z,3.00
2022-09-07T00:33:50.551Z,3.40
2022-09-07T00:36:19.463Z,3.60
2022-09-07T00:38:46.792Z,3.45
2022-09-07T00:41:14.570Z,3.45
2022-09-07T00:43:47.052Z,3.30
2022-09-07T00:46:27.188Z,2.92
2022-09-07T00:49:08.079Z,3.45
2022-09-07T00:51:40.499Z,3.00
2022-09-07T00:54:12.251Z,2.75
2022-09-07T00:56:42.609Z,2.90
2022-09-07T00:59:12.526Z,3.70
2022-09-07T01:01:39.468Z,2.97
2022-09-07T01:04:06.910Z,2.90
2022-09-07T01:06:36.101Z,3.05
2022-09-07T01:09:12.651Z,3.42
2022-09-07T01:11:39.678Z,3.17
2022-09-07T01:14:10.243Z,3.35
2022-09-07T01:17:06.055Z,3.20
2022-09-07T01:20:09.398Z,3.10
2022-09-07T01:23:11.235Z,3.22
2022-09-07T01:25:51.891Z,3.25
2022-09-07T01:28:24.183Z,3.38
2022-09-07T01:31:09.456Z,3.03
2022-09-07T01:34:09.922Z,3.35
2022-09-07T01:36:50.336Z,3.20
2022-09-07T01:39:19.208Z,3.10
2022-09-07T01:42:00.872Z,2.85
2022-09-07T01:44:34.558Z,3.30
2022-09-07T01:47:15.226Z,4.65
2022-09-07T01:50:07.963Z,3.20
2022-09-07T01:52:42.173Z,3.28
2022-09-07T01:55:36.735Z,3.38
2022-09-07T01:58:24.277Z,3.22
2022-09-07T02:01:02.907Z,3.33
2022-09-07T02:03:39.514Z,3.30
2022-09-07T02:06:46.011Z,3.50
2022-09-07T02:09:32.055Z,3.10
2022-09-07T02:12:03.334Z,3.50
2022-09-07T02:14:40.772Z,3.33
2022-09-07T02:17:18.264Z,2.85
2022-09-07T02:19:59.933Z,3.20
2022-09-07T02:22:31.754Z,3.03
2022-09-07T02:25:02.445Z,3.17
2022-09-07T02:27:41.097Z,3.40
2022-09-07T02:30:08.389Z,3.17
2022-09-07T02:32:34.926Z,3.60
2022-09-07T02:35:02.385Z,3.22
2022-09-07T02:37:30.112Z,3.38
2022-09-07T02:39:57.644Z,3.10
2022-09-07T02:42:24.271Z,3.35
2022-09-07T02:44:50.802Z,3.38
2022-09-07T02:47:46.322Z,3.08
2022-09-07T02:50:28.775Z,3.33
2022-09-07T02:53:12.906Z,3.72
2022-09-07T02:56:12.694Z,3.33
2022-09-07T02:58:55.528Z,2.92
2022-09-07T03:01:46.724Z,3.05
2022-09-07T03:04:33.419Z,3.38
2022-09-07T03:07:14.760Z,2.90
2022-09-07T03:09:46.104Z,3.53
2022-09-07T03:12:13.061Z,3.08
2022-09-07T03:14:41.692Z,2.97
2022-09-07T03:17:09.200Z,3.03
2022-09-07T03:19:36.229Z,2.78
2022-09-07T03:22:03.966Z,4.50
2022-09-07T03:24:30.578Z,3.03
2022-09-07T03:26:57.650Z,3.03
2022-09-07T03:29:24.281Z,3.28
2022-09-07T03:31:50.835Z,3.03
2022-09-07T03:34:17.430Z,2.70
2022-09-07T03:36:44.136Z,3.10
2022-09-07T03:39:13.084Z,3.45
2022-09-07T03:41:39.827Z,2.88
2022-09-07T03:44:07.618Z,2.80
2022-09-07T03:46:34.886Z,2.97
2022-09-07T03:49:01.416Z,3.03
2022-09-07T03:51:28.053Z,3.35
2022-09-07T03:53:54.765Z,2.85
2022-09-07T03:56:23.396Z,3.30
2022-09-07T03:58:50.571Z,2.70
2022-09-07T04:01:20.282Z,3.10
2022-09-07T04:03:48.117Z,3.10
2022-09-07T04:06:16.125Z,2.63
2022-09-07T04:08:43.285Z,2.60
2022-09-07T04:11:13.420Z,2.85
2022-09-07T04:13:40.447Z,2.70
2022-09-07T04:16:16.021Z,2.90
2022-09-07T04:18:43.164Z,3.42
2022-09-07T04:21:11.792Z,2.63
2022-09-07T04:23:42.820Z,3.10
2022-09-07T04:26:18.461Z,2.47
2022-09-07T04:28:45.627Z,2.38
2022-09-07T04:31:13.744Z,2.58
2022-09-07T04:33:40.389Z,3.08
2022-09-07T04:36:07.565Z,3.05
2022-09-07T04:38:34.358Z,2.60
2022-09-07T04:41:08.193Z,3.15
2022-09-07T04:43:38.986Z,2.92
2022-09-07T04:46:30.860Z,2.97
2022-09-07T04:49:00.292Z,2.58
2022-09-07T04:51:29.498Z,2.40
2022-09-07T04:53:57.859Z,2.65
2022-09-07T04:56:24.602Z,3.00
2022-09-07T04:58:52.004Z,2.40
2022-09-07T05:01:21.171Z,2.50
2022-09-07T05:03:48.472Z,2.63
2022-09-07T05:06:17.638Z,2.40
2022-09-07T05:08:46.820Z,2.20
2022-09-07T05:11:14.471Z,2.38
2022-09-07T05:13:41.029Z,2.75
2022-09-07T05:16:17.629Z,2.30
2022-09-07T05:18:45.097Z,2.30
2022-09-07T05:21:14.439Z,2.58
2022-09-07T05:23:41.904Z,2.67
2022-09-07T05:26:09.560Z,2.78
2022-09-07T05:28:36.490Z,2.40
2022-09-07T05:31:20.697Z,2.53
2022-09-07T05:36:36.290Z,2.40
2022-09-07T05:39:04.961Z,2.78
2022-09-07T05:41:31.649Z,2.45
2022-09-07T05:46:44.929Z,2.80
2022-09-07T05:49:11.649Z,2.17
2022-09-07T05:51:38.453Z,2.85
2022-09-07T05:54:05.136Z,3.30
2022-09-07T05:56:37.409Z,2.55
2022-09-07T05:59:04.168Z,2.53
2022-09-07T06:01:30.828Z,2.28
2022-09-07T06:03:57.679Z,2.40
2022-09-07T06:06:24.210Z,2.47
2022-09-07T06:08:53.183Z,2.70
2022-09-07T06:11:22.159Z,2.80
2022-09-07T06:13:49.010Z,2.60
2022-09-07T06:16:17.370Z,2.95
2022-09-07T06:18:49.701Z,2.42
2022-09-07T06:21:22.445Z,2.58
2022-09-07T06:23:50.244Z,2.72
2022-09-07T06:26:18.585Z,2.92
2022-09-07T06:28:49.616Z,2.78
2022-09-07T06:31:19.683Z,2.80
2022-09-07T06:33:50.031Z,2.65
2022-09-07T06:36:18.953Z,2.90
2022-09-07T06:38:46.922Z,3.03
2022-09-07T06:44:03.102Z,2.65
2022-09-07T06:49:16.171Z,2.58
2022-09-07T06:51:42.778Z,2.65
2022-09-07T06:56:56.461Z,3.30
2022-09-07T06:59:23.007Z,2.80
2022-09-07T07:01:49.670Z,3.03
2022-09-07T07:04:16.270Z,3.17
2022-09-07T07:06:42.807Z,3.42
2022-09-07T07:09:13.844Z,2.85
2022-09-07T07:11:40.445Z,2.63
2022-09-07T07:14:07.024Z,3.45
2022-09-07T07:16:36.265Z,2.97
2022-09-07T07:19:02.909Z,2.95
2022-09-07T07:21:43.049Z,3.25
2022-09-07T07:24:15.963Z,2.67
2022-09-07T07:26:43.862Z,3.25
2022-09-07T07:29:10.398Z,3.05
2022-09-07T07:31:37.701Z,2.90
2022-09-07T07:34:04.246Z,3.00
2022-09-07T07:36:30.853Z,3.00
2022-09-07T07:44:18.465Z,4.00
2022-09-07T07:46:48.862Z,4.13
2022-09-07T07:49:15.912Z,3.85
2022-09-07T07:54:29.191Z,4.18
2022-09-07T07:56:55.695Z,4.95
2022-09-07T07:59:22.214Z,5.50
2022-09-07T08:01:49.037Z,5.25
2022-09-07T08:04:15.662Z,5.40
2022-09-07T08:06:42.977Z,5.28
2022-09-07T08:09:10.892Z,5.13
2022-09-07T08:11:39.958Z,5.35
2022-09-07T08:14:08.814Z,4.80
2022-09-07T08:16:36.157Z,5.20
2022-09-07T08:19:03.307Z,5.07
2022-09-07T08:21:29.871Z,4.95
2022-09-07T08:23:56.617Z,5.40
2022-09-07T08:26:23.114Z,4.47
2022-09-07T08:28:49.610Z,5.43
2022-09-07T08:31:16.974Z,4.63
2022-09-07T08:33:43.853Z,4.90
2022-09-07T08:36:15.460Z,4.47
2022-09-07T08:38:42.278Z,4.90
2022-09-07T08:41:46.879Z,4.80
2022-09-07T08:44:23.871Z,4.60
2022-09-07T08:46:56.567Z,5.47
2022-09-07T08:49:41.943Z,5.00
2022-09-07T08:52:14.990Z,5.32
2022-09-07T08:54:46.919Z,5.07
2022-09-07T08:57:21.478Z,6.30
2022-09-07T09:00:03.676Z,6.05
2022-09-07T09:02:33.696Z,7.07
2022-09-07T09:05:20.911Z,6.50
2022-09-07T09:08:13.003Z,6.28
2022-09-07T09:11:04.015Z,6.25
2022-09-07T09:13:40.942Z,5.72
2022-09-07T09:16:18.809Z,5.68
2022-09-07T09:18:49.963Z,6.68
2022-09-07T09:21:18.642Z,6.40
2022-09-07T09:23:50.982Z,6.88
2022-09-07T09:26:24.811Z,6.30
2022-09-07T09:28:51.432Z,6.95
2022-09-07T09:31:33.942Z,6.72
2022-09-07T09:34:33.391Z,6.47
2022-09-07T09:37:01.567Z,7.05
2022-09-07T09:39:36.824Z,6.65
2022-09-07T09:42:24.086Z,6.78
2022-09-07T09:44:51.586Z,6.10
2022-09-07T09:47:31.258Z,7.00
2022-09-07T09:50:04.581Z,6.38
2022-09-07T09:52:42.985Z,6.18
2022-09-07T09:55:34.911Z,5.75
2022-09-07T10:04:01.015Z,5.10
2022-09-07T10:06:29.415Z,5.88
2022-09-07T10:08:58.832Z,5.57
2022-09-07T10:14:43.202Z,5.80
2022-09-07T10:17:12.556Z,5.75
2022-09-07T10:19:42.384Z,5.85
2022-09-07T10:22:33.092Z,5.45
2022-09-07T10:25:00.889Z,4.70
2022-09-07T10:27:37.553Z,5.13
2022-09-07T10:30:14.889Z,5.25
2022-09-07T10:32:50.030Z,5.70
2022-09-07T10:35:42.280Z,5.47
2022-09-07T10:38:19.498Z,5.57
2022-09-07T10:40:58.275Z,6.53
2022-09-07T10:43:49.616Z,5.50
2022-09-07T10:46:59.440Z,5.55
2022-09-07T10:49:39.991Z,6.22
2022-09-07T10:52:35.430Z,6.28
2022-09-07T10:55:13.427Z,5.47
2022-09-07T10:57:49.288Z,5.97
2022-09-07T11:00:18.408Z,5.40
2022-09-07T11:06:13.710Z,4.63
2022-09-07T11:09:19.289Z,5.28
2022-09-07T11:12:08.226Z,6.43
2022-09-07T11:15:12.928Z,5.50
2022-09-07T11:17:48.335Z,6.22
2022-09-07T11:20:32.429Z,6.32
2022-09-07T11:23:19.344Z,5.93
2022-09-07T11:26:24.303Z,6.20
2022-09-07T11:32:02.027Z,6.28
2022-09-07T11:34:45.150Z,6.68
2022-09-07T11:37:20.218Z,5.95
2022-09-07T11:39:50.670Z,6.95
2022-09-07T11:45:30.463Z,6.57
2022-09-07T11:48:09.304Z,6.88
2022-09-07T11:50:39.294Z,6.75
2022-09-07T11:53:23.986Z,6.68
2022-09-07T11:55:57.037Z,6.22
2022-09-07T11:58:47.179Z,6.35
2022-09-07T12:01:32.227Z,6.30
2022-09-07T12:04:33.274Z,6.97
2022-09-07T12:07:26.907Z,6.95
2022-09-07T12:10:16.596Z,6.93
2022-09-07T12:12:56.524Z,7.28
2022-09-07T12:15:24.695Z,6.68
2022-09-07T12:18:12.266Z,6.80
2022-09-07T12:20:47.660Z,6.55
2022-09-07T12:23:17.205Z,6.40
2022-09-07T12:25:48.723Z,6.57
2022-09-07T12:28:28.266Z,6.22
2022-09-07T12:31:04.433Z,6.90
2022-09-07T12:33:36.700Z,5.97
2022-09-07T12:36:25.714Z,6.40
2022-09-07T12:39:28.579Z,6.50
2022-09-07T12:45:28.771Z,7.13
2022-09-07T12:48:04.594Z,6.88
2022-09-07T12:50:40.451Z,6.90
2022-09-07T12:53:33.840Z,6.40
2022-09-07T12:56:25.976Z,7.80
2022-09-07T12:59:20.496Z,6.50
2022-09-07T13:02:22.726Z,6.53
2022-09-07T13:04:56.139Z,6.22
2022-09-07T13:07:25.358Z,7.00
2022-09-07T13:10:04.295Z,6.35
2022-09-07T13:12:53.913Z,7.00
2022-09-07T13:15:39.693Z,6.85
2022-09-07T13:18:12.382Z,5.97
2022-09-07T13:20:41.466Z,7.03
2022-09-07T13:23:19.836Z,7.18
2022-09-07T13:25:50.025Z,6.95
2022-09-07T13:28:43.284Z,7.88
2022-09-07T13:31:22.756Z,6.85
2022-09-07T13:33:51.291Z,6.90
2022-09-07T13:36:26.066Z,6.95
2022-09-07T13:38:54.335Z,7.10
2022-09-07T13:41:40.850Z,6.75
2022-09-07T13:44:22.363Z,6.75
2022-09-07T13:47:23.666Z,6.60
2022-09-07T13:50:11.371Z,7.53
2022-09-07T13:53:06.094Z,7.50
2022-09-07T13:56:00.475Z,7.10
2022-09-07T13:58:35.859Z,6.82
2022-09-07T14:01:15.945Z,6.63
2022-09-07T14:03:53.413Z,6.47
2022-09-07T14:06:25.036Z,7.07
2022-09-07T14:08:58.013Z,6.70
2022-09-07T14:11:43.044Z,7.22
2022-09-07T14:14:14.669Z,6.40
2022-09-07T14:16:44.380Z,6.57
2022-09-07T14:19:45.259Z,6.95
2022-09-07T14:22:16.399Z,7.10
2022-09-07T14:25:01.360Z,7.72
2022-09-07T14:27:40.237Z,7.20
2022-09-07T14:30:23.716Z,7.25
2022-09-07T14:32:56.123Z,6.70
2022-09-07T14:35:25.966Z,6.60
2022-09-07T14:37:53.664Z,7.53
2022-09-07T14:40:25.334Z,7.30
2022-09-07T14:42:54.290Z,6.72
2022-09-07T14:45:23.658Z,7.05
2022-09-07T14:47:56.211Z,6.93
2022-09-07T14:50:32.490Z,7.47
2022-09-07T14:55:49.507Z,7.00
2022-09-07T14:58:16.002Z,7.07
2022-09-07T15:03:43.384Z,7.35
2022-09-07T15:07:00.845Z,7.10
2022-09-07T15:08:57.915Z,7.15
2022-09-07T15:11:34.898Z,7.03
2022-09-07T15:14:17.228Z,6.22
2022-09-07T15:16:44.772Z,6.68
2022-09-07T15:19:18.363Z,7.07
2022-09-07T15:21:45.460Z,6.55
2022-09-07T15:24:12.312Z,7.05
2022-09-07T15:27:02.670Z,6.68
2022-09-07T15:29:30.190Z,7.00
2022-09-07T15:32:03.818Z,6.15
2022-09-07T15:34:32.067Z,6.82
2022-09-07T15:37:00.305Z,7.22
2022-09-07T15:39:29.612Z,6.63
2022-09-07T15:41:57.037Z,7.15
2022-09-07T15:44:26.376Z,7.13
2022-09-07T15:49:46.032Z,7.18
2022-09-07T15:52:14.193Z,6.97
2022-09-07T15:54:40.712Z,7.00
2022-09-07T15:59:53.698Z,6.78
2022-09-07T16:05:07.784Z,7.00
2022-09-07T16:10:21.344Z,7.00
2022-09-07T16:13:10.511Z,7.18
2022-09-07T16:15:34.658Z,7.00
2022-09-07T16:18:02.169Z,7.13
2022-09-07T16:20:31.950Z,6.50
2022-09-07T16:23:15.597Z,6.57
2022-09-07T16:25:54.900Z,6.78
2022-09-07T16:28:23.007Z,6.95
2022-09-07T16:30:49.554Z,6.57
2022-09-07T16:33:16.274Z,7.50
2022-09-07T16:35:42.827Z,6.68
2022-09-07T16:40:55.880Z,6.60
2022-09-07T16:43:22.399Z,6.68
2022-09-07T16:46:04.844Z,7.55
2022-09-07T16:48:33.918Z,6.72
2022-09-07T16:51:02.759Z,7.00
2022-09-07T16:53:31.676Z,7.03
2022-09-07T16:56:04.288Z,7.28
2022-09-07T16:58:35.995Z,7.20
2022-09-07T17:01:03.924Z,7.65
2022-09-07T17:03:30.476Z,7.63
2022-09-07T17:06:00.098Z,7.25
2022-09-07T17:08:27.051Z,7.57
2022-09-07T17:11:01.593Z,7.22
2022-09-07T17:13:28.273Z,6.30
2022-09-07T17:15:54.838Z,6.45
2022-09-07T17:19:29.005Z,7.07
2022-09-07T17:21:09.837Z,6.90
2022-09-07T17:23:45.583Z,7.47
2022-09-07T17:26:19.744Z,7.05
2022-09-07T17:28:49.874Z,7.35
2022-09-07T17:34:07.140Z,7.70
2022-09-07T17:36:34.417Z,7.45
2022-09-07T17:39:18.495Z,7.90
2022-09-07T17:41:46.988Z,8.10
2022-09-07T17:44:13.735Z,8.82
2022-09-07T17:46:40.271Z,8.63
2022-09-07T17:49:08.618Z,7.95
2022-09-07T17:51:35.998Z,7.95
2022-09-07T17:54:13.171Z,7.97
2022-09-07T17:56:41.187Z,8.25
2022-09-07T18:01:55.374Z,8.32
2022-09-07T18:04:22.868Z,9.30
2022-09-07T18:06:49.630Z,8.88
2022-09-07T18:09:16.153Z,8.57
2022-09-07T18:11:45.958Z,8.68
2022-09-07T18:14:14.402Z,8.07
2022-09-07T18:16:42.064Z,8.43
2022-09-07T18:19:08.763Z,8.15
2022-09-07T18:21:37.204Z,8.38
2022-09-07T18:24:08.068Z,8.80
2022-09-07T18:26:38.280Z,8.65
2022-09-07T18:29:10.492Z,8.52
2022-09-07T18:31:45.931Z,9.18
2022-09-07T18:34:12.523Z,8.85
2022-09-07T18:36:40.717Z,9.10
2022-09-07T18:39:07.821Z,9.93
2022-09-07T18:41:34.758Z,11.57
2022-09-07T18:44:01.638Z,14.77
2022-09-07T18:46:28.423Z,12.98
2022-09-07T18:48:55.970Z,10.55
2022-09-07T18:51:22.617Z,10.65
2022-09-07T18:53:49.236Z,10.20
2022-09-07T18:56:21.015Z,10.65
2022-09-07T18:58:47.783Z,12.35
2022-09-07T19:01:17.878Z,13.13
2022-09-07T19:03:52.337Z,12.40
2022-09-07T19:06:18.835Z,12.98
2022-09-07T19:08:46.465Z,12.65
2022-09-07T19:11:17.051Z,12.13
2022-09-07T19:13:44.489Z,11.75
2022-09-07T19:16:13.674Z,11.48
2022-09-07T19:18:45.938Z,11.10
2022-09-07T19:21:16.809Z,11.20
2022-09-07T19:23:43.590Z,11.63
2022-09-07T19:26:10.442Z,10.80
2022-09-07T19:28:36.952Z,10.93
2022-09-07T19:31:07.201Z,10.88
2022-09-07T19:33:35.137Z,11.43
2022-09-07T19:36:05.694Z,11.77
2022-09-07T19:38:32.875Z,12.40
2022-09-07T19:41:00.641Z,10.98
2022-09-07T19:43:31.939Z,12.30
2022-09-07T19:45:59.252Z,11.48
2022-09-07T19:48:26.908Z,10.70
2022-09-07T19:50:53.534Z,11.43
2022-09-07T19:53:20.308Z,12.50
2022-09-07T19:55:46.803Z,11.32
2022-09-07T19:58:13.483Z,13.10
2022-09-07T20:00:41.539Z,12.15
2022-09-07T20:03:10.454Z,13.40
2022-09-07T20:05:39.471Z,12.38
2022-09-07T20:08:06.910Z,12.27
2022-09-07T20:10:34.017Z,12.77
2022-09-07T20:13:00.574Z,12.82
2022-09-07T20:15:27.449Z,13.77
2022-09-07T20:17:54.259Z,11.68
2022-09-07T20:20:21.827Z,12.30
2022-09-07T20:22:48.396Z,11.50
2022-09-07T20:25:15.032Z,12.10
2022-09-07T20:27:41.829Z,12.27
2022-09-07T20:30:08.755Z,12.73
2022-09-07T20:32:35.242Z,13.15
2022-09-07T20:35:01.863Z,11.68
2022-09-07T20:37:28.427Z,13.52
2022-09-07T20:39:55.227Z,11.82
2022-09-07T20:42:21.753Z,11.82
2022-09-07T20:44:48.239Z,12.70
2022-09-07T20:47:14.744Z,11.50
2022-09-07T20:49:41.237Z,12.73
2022-09-07T20:52:07.748Z,12.88
2022-09-07T20:54:34.707Z,13.20
2022-09-07T20:57:04.048Z,13.07
2022-09-07T20:59:30.782Z,13.90
2022-09-07T21:01:57.399Z,13.35
2022-09-07T21:04:26.275Z,12.60
2022-09-07T21:06:53.019Z,12.75
2022-09-07T21:09:19.947Z,12.23
2022-09-07T21:11:49.652Z,12.68
2022-09-07T21:14:17.727Z,12.35
2022-09-07T21:16:44.343Z,11.90
2022-09-07T21:19:11.080Z,11.63
2022-09-07T21:21:42.431Z,12.65
2022-09-07T21:24:18.225Z,11.90
2022-09-07T21:26:45.504Z,11.80
2022-09-07T21:29:23.186Z,12.23
2022-09-07T21:31:50.295Z,11.20
2022-09-07T21:34:16.975Z,12.13
2022-09-07T21:36:43.486Z,12.00
2022-09-07T21:39:13.849Z,11.45
2022-09-07T21:41:41.594Z,11.15
2022-09-07T21:44:08.108Z,12.15
2022-09-07T21:46:34.721Z,11.63
2022-09-07T21:49:01.334Z,11.63
2022-09-07T21:51:28.560Z,12.63
2022-09-07T21:53:57.099Z,11.82
2022-09-07T21:56:24.433Z,11.90
2022-09-07T21:58:55.519Z,12.25
2022-09-07T22:01:23.272Z,11.70
2022-09-07T22:04:03.941Z,11.57
2022-09-07T22:06:32.237Z,11.70
2022-09-07T22:08:59.763Z,11.00
2022-09-07T22:11:28.149Z,12.45
2022-09-07T22:13:56.955Z,11.98
2022-09-07T22:16:24.414Z,11.88
2022-09-07T22:18:51.159Z,11.75
2022-09-07T22:21:24.049Z,11.55
2022-09-07T22:23:52.805Z,12.63
2022-09-07T22:26:22.896Z,13.05
2022-09-07T22:28:50.126Z,12.73
2022-09-07T22:31:19.719Z,13.73
2022-09-07T22:33:47.318Z,12.75
2022-09-07T22:36:29.057Z,13.40
2022-09-07T22:38:57.951Z,12.75
2022-09-07T22:41:28.150Z,13.32
2022-09-07T22:43:55.292Z,12.93
2022-09-07T22:46:23.736Z,13.15
2022-09-07T22:48:52.724Z,12.50
2022-09-07T22:51:19.755Z,12.48
2022-09-07T22:53:46.263Z,11.65
2022-09-07T22:56:19.769Z,11.85
2022-09-07T22:58:52.336Z,13.02
2022-09-07T23:01:20.747Z,14.32
2022-09-07T23:03:47.719Z,14.15
2022-09-07T23:06:26.195Z,13.13
2022-09-07T23:08:54.304Z,13.20
2022-09-07T23:11:21.554Z,14.38
2022-09-07T23:13:52.943Z,16.25
2022-09-07T23:16:19.717Z,16.85
2022-09-07T23:18:46.620Z,17.08
2022-09-07T23:21:13.185Z,16.20
2022-09-07T23:23:39.828Z,14.98
2022-09-07T23:26:06.867Z,17.35
2022-09-07T23:28:33.858Z,17.40
2022-09-07T23:31:00.711Z,16.35
2022-09-07T23:33:27.588Z,15.50
2022-09-07T23:36:01.132Z,16.17
2022-09-07T23:38:28.506Z,17.13
2022-09-07T23:40:56.788Z,16.65
2022-09-07T23:43:24.454Z,17.00
2022-09-07T23:45:50.952Z,16.70
2022-09-07T23:48:17.508Z,16.48
2022-09-07T23:50:45.370Z,15.25
2022-09-07T23:53:12.486Z,14.45
2022-09-07T23:55:39.347Z,14.32
2022-09-07T23:58:06.330Z,13.80
